Time;durP1;ratioP1;P1;durP2;ratioP2;P2;SDS_P1;SDS_P2;PMS_P1;PMS_P2;Temp;Humidity;BMP_temperature;BMP_pressure;BME280_temperature;BME280_humidity;BME280_pressure;Samples;Min_cycle;Max_cycle;Signal;HPM_P1;HPM_P2
2023/06/23 00:00:29;;;;;;;;;;;;;;;;;;4973755;28;8620;-81
2023/06/23 00:02:54;;;;;;;;;;;;;;;;;;4973312;28;8570;-81
2023/06/23 00:05:21;;;;;;;;;;;;;;;;;;4973477;28;8923;-81
2023/06/23 00:07:46;;;;;;;;;;;;;;;;;;4973378;28;7167;-81
2023/06/23 00:10:12;;;;;;;;;;;;;;;;;;4973764;28;8981;-82
2023/06/23 00:12:41;;;;;;;;;;;;;;;;;;4973539;28;8824;-81
2023/06/23 00:15:12;;;;;;;;;;;;;;;;;;4973450;28;7471;-82
2023/06/23 00:17:40;;;;;;;;;;;;;;;;;;4973013;28;8586;-81
2023/06/23 00:20:12;;;;;;;;;;;;;;;;;;4984516;28;9235;-80
2023/06/23 00:22:38;;;;;;;;;;;;;;;;;;4994210;28;8573;-80
2023/06/23 00:25:04;;;;;;;;;;;;;;;;;;4986941;28;9215;-81
2023/06/23 00:27:29;;;;;;;;;;;;;;;;;;4989500;28;8608;-81
2023/06/23 00:29:55;;;;;;;;;;;;;;;;;;4995015;28;9067;-82
2023/06/23 00:32:20;;;;;;;;;;;;;;;;;;4995599;28;8664;-81
2023/06/23 00:34:46;;;;;;;;;;;;;;;;;;4989650;28;8738;-80
2023/06/23 00:37:11;;;;;;;;;;;;;;;;;;4993604;28;8553;-81
2023/06/23 00:39:37;;;;;;;;;;;;;;;;;;4993674;28;8585;-81
2023/06/23 00:42:03;;;;;;;;;;;;;;;;;;4993490;28;8577;-80
2023/06/23 00:44:29;;;;;;;;;;;;;;;;;;4993154;28;8700;-80
2023/06/23 00:46:55;;;;;;;;;;;;;;;;;;4988705;28;7251;-81
2023/06/23 00:49:24;;;;;;;;;;;;;;;;;;4979302;28;8566;-80
2023/06/23 00:51:49;;;;;;;;;;;;;;;;;;4986523;28;8532;-82
2023/06/23 00:54:15;;;;;;;;;;;;;;;;;;4995554;28;8835;-82
2023/06/23 00:56:40;;;;;;;;;;;;;;;;;;4996338;28;7607;-80
2023/06/23 00:59:06;;;;;;;;;;;;;;;;;;4994089;28;8546;-80
2023/06/23 01:01:31;;;;;;;;;;;;;;;;;;4994767;28;8563;-81
2023/06/23 01:04:01;;;;;;;;;;;;;;;;;;4995283;28;8525;-80
2023/06/23 01:06:37;;;;;;;;;;;;;;;;;;4995425;28;8926;-81
2023/06/23 01:09:21;;;;;;;;;;;;;;;;;;4995289;28;8997;-81
2023/06/23 01:11:55;;;;;;;;;;;;;;;;;;4995346;28;8505;-80
2023/06/23 01:14:40;;;;;;;;;;;;;;;;;;4995577;28;8575;-81
2023/06/23 01:17:10;;;;;;;;;;;;;;;;;;4995752;28;8888;-81
2023/06/23 01:19:36;;;;;;;;;;;;;;;;;;4995590;28;8852;-81
2023/06/23 01:22:08;;;;;;;;;;;;;;;;;;4995463;28;8783;-81
2023/06/23 01:24:42;;;;;;;;;;;;;;;;;;4995120;28;8498;-81
2023/06/23 01:27:08;;;;;;;;;;;;;;;;;;4995359;28;8699;-81
2023/06/23 01:29:36;;;;;;;;;;;;;;;;;;4995165;28;8607;-80
2023/06/23 01:32:10;;;;;;;;;;;;;;;;;;4995600;28;7268;-81
2023/06/23 01:34:40;;;;;;;;;;;;;;;;;;4995512;28;9498;-82
2023/06/23 01:37:12;;;;;;;;;;;;;;;;;;4995009;28;8561;-81
2023/06/23 01:39:42;;;;;;;;;;;;;;;;;;4995096;28;8820;-81
2023/06/23 01:42:13;;;;;;;;;;;;;;;;;;4994404;28;8558;-81
2023/06/23 01:44:43;;;;;;;;;;;;;;;;;;4994957;28;7122;-80
2023/06/23 01:47:15;;;;;;;;;;;;;;;;;;4995155;28;9319;-81
2023/06/23 01:49:42;;;;;;;;;;;;;;;;;;4995032;28;8487;-81
2023/06/23 01:52:10;;;;;;;;;;;;;;;;;;4995446;28;7339;-81
2023/06/23 01:54:39;;;;;;;;;;;;;;;;;;4998156;28;7276;-80
2023/06/23 01:57:06;;;;;;;;;;;;;;;;;;4984817;28;8555;-81
2023/06/23 01:59:33;;;;;;;;;;;;;;;;;;4984419;28;8595;-80
2023/06/23 02:02:01;;;;;;;;;;;;;;;;;;4984333;28;7106;-80
2023/06/23 02:04:28;;;;;;;;;;;;;;;;;;4979141;28;8838;-80
2023/06/23 02:06:55;;;;;;;;;;;;;;;;;;4979014;28;8620;-80
2023/06/23 02:09:27;;;;;;;;;;;;;;;;;;4978733;28;8820;-80
2023/06/23 02:11:54;;;;;;;;;;;;;;;;;;4981180;28;8618;-80
2023/06/23 02:14:22;;;;;;;;;;;;;;;;;;4990636;28;8906;-80
2023/06/23 02:16:48;;;;;;;;;;;;;;;;;;4984921;28;7284;-80
2023/06/23 02:19:16;;;;;;;;;;;;;;;;;;4988882;28;8920;-82
2023/06/23 02:21:43;;;;;;;;;;;;;;;;;;4986691;28;8765;-80
2023/06/23 02:24:11;;;;;;;;;;;;;;;;;;4990682;28;7156;-80
2023/06/23 02:26:38;;;;;;;;;;;;;;;;;;4997208;28;8525;-80
2023/06/23 02:29:06;;;;;;;;;;;;;;;;;;4983985;28;8607;-80
2023/06/23 02:31:33;;;;;;;;;;;;;;;;;;4994432;28;7180;-80
2023/06/23 02:33:59;;;;;;;;;;;;;;;;;;4979192;28;8922;-80
2023/06/23 02:36:30;;;;;;;;;;;;;;;;;;4978583;28;8847;-80
2023/06/23 02:38:59;;;;;;;;;;;;;;;;;;4978378;28;8716;-80
2023/06/23 02:41:27;;;;;;;;;;;;;;;;;;4978370;28;8634;-80
2023/06/23 02:43:57;;;;;;;;;;;;;;;;;;4978064;28;8761;-80
2023/06/23 02:46:26;;;;;;;;;;;;;;;;;;4978330;28;7266;-81
2023/06/23 02:48:54;;;;;;;;;;;;;;;;;;4982072;28;8572;-81
2023/06/23 02:51:23;;;;;;;;;;;;;;;;;;4992798;28;9600;-80
2023/06/23 02:53:53;;;;;;;;;;;;;;;;;;4996696;28;8691;-81
2023/06/23 02:56:21;;;;;;;;;;;;;;;;;;4996144;28;7159;-81
2023/06/23 02:58:49;;;;;;;;;;;;;;;;;;4997510;28;8576;-81
2023/06/23 03:01:16;;;;;;;;;;;;;;;;;;4997683;28;8522;-80
2023/06/23 03:03:44;;;;;;;;;;;;;;;;;;4997466;28;8811;-81
2023/06/23 03:06:18;;;;;;;;;;;;;;;;;;4997277;28;7145;-81
2023/06/23 03:08:45;;;;;;;;;;;;;;;;;;4997086;28;9413;-81
2023/06/23 03:11:10;;;;;;;;;;;;;;;;;;4994020;28;8533;-80
2023/06/23 03:13:36;;;;;;;;;;;;;;;;;;4988118;28;8504;-81
2023/06/23 03:16:08;;;;;;;;;;;;;;;;;;4977974;28;8587;-81
2023/06/23 03:18:37;;;;;;;;;;;;;;;;;;5000365;28;8606;-80
2023/06/23 03:21:05;;;;;;;;;;;;;;;;;;4995032;28;8682;-80
2023/06/23 03:23:33;;;;;;;;;;;;;;;;;;4984565;28;8546;-80
2023/06/23 03:26:01;;;;;;;;;;;;;;;;;;4985531;28;8529;-80
2023/06/23 03:28:29;;;;;;;;;;;;;;;;;;4982351;28;8576;-78
2023/06/23 03:31:18;;;;;;;;;;;;;;;;;;4983201;28;7154;-78
2023/06/23 03:33:45;;;;;;;;;;;;;;;;;;4979369;28;8721;-78
2023/06/23 03:36:13;;;;;;;;;;;;;;;;;;4988208;28;8985;-79
2023/06/23 03:38:44;;;;;;;;;;;;;;;;;;4996992;28;8514;-78
2023/06/23 03:41:11;;;;;;;;;;;;;;;;;;4996905;28;8837;-78
2023/06/23 03:43:37;;;;;;;;;;;;;;;;;;4996707;28;9536;-78
2023/06/23 03:46:06;;;;;;;;;;;;;;;;;;4996464;28;9378;-80
2023/06/23 03:48:36;;;;;;;;;;;;;;;;;;4996445;28;8668;-80
2023/06/23 03:51:04;;;;;;;;;;;;;;;;;;4996927;28;8495;-79
2023/06/23 03:53:31;;;;;;;;;;;;;;;;;;4996545;28;7149;-80
2023/06/23 03:55:59;;;;;;;;;;;;;;;;;;4996755;28;8889;-80
2023/06/23 03:58:26;;;;;;;;;;;;;;;;;;4994919;28;8585;-81
2023/06/23 04:00:54;;;;;;;;;;;;;;;;;;4990447;28;8579;-81
2023/06/23 04:03:22;;;;;;;;;;;;;;;;;;4988216;28;8875;-81
2023/06/23 04:05:50;;;;;;;;;;;;;;;;;;5002553;28;8943;-81
2023/06/23 04:08:18;;;;;;;;;;;;;;;;;;4999618;28;8490;-80
2023/06/23 04:10:48;;;;;;;;;;;;;;;;;;4999372;28;8841;-81
2023/06/23 04:13:14;;;;;;;;;;;;;;;;;;4991434;28;8865;-81
2023/06/23 04:15:42;;;;;;;;;;;;;;;;;;4991115;28;8720;-81
2023/06/23 04:18:11;;;;;;;;;;;;;;;;;;4991824;28;8538;-80
2023/06/23 04:20:39;;;;;;;;;;;;;;;;;;4993473;28;7240;-80
2023/06/23 04:23:06;;;;;;;;;;;;;;;;;;4987624;28;8606;-80
2023/06/23 04:25:32;;;;;;;;;;;;;;;;;;4986138;28;9118;-80
2023/06/23 04:28:04;;;;;;;;;;;;;;;;;;5007319;28;8852;-79
2023/06/23 04:30:31;;;;;;;;;;;;;;;;;;5011817;28;7240;-80
2023/06/23 04:32:57;;;;;;;;;;;;;;;;;;5005107;28;8700;-81
2023/06/23 04:35:22;;;;;;;;;;;;;;;;;;4996193;28;8675;-81
2023/06/23 04:38:00;;;;;;;;;;;;;;;;;;4996338;28;9160;-80
2023/06/23 04:40:40;;;;;;;;;;;;;;;;;;4992531;28;8869;-79
2023/06/23 04:43:13;;;;;;;;;;;;;;;;;;4981755;28;8596;-81
2023/06/23 04:45:43;;;;;;;;;;;;;;;;;;4987430;28;9176;-80
2023/06/23 04:48:11;;;;;;;;;;;;;;;;;;5003931;28;8536;-80
2023/06/23 04:50:39;;;;;;;;;;;;;;;;;;5003139;28;8545;-81
2023/06/23 04:53:07;;;;;;;;;;;;;;;;;;4994982;28;8772;-83
2023/06/23 04:55:35;;;;;;;;;;;;;;;;;;5000894;28;8608;-81
2023/06/23 04:58:04;;;;;;;;;;;;;;;;;;4995170;28;8927;-81
2023/06/23 05:00:31;;;;;;;;;;;;;;;;;;5003287;28;7551;-82
2023/06/23 05:03:00;;;;;;;;;;;;;;;;;;4992163;28;8541;-82
2023/06/23 05:05:30;;;;;;;;;;;;;;;;;;4991987;28;7548;-81
2023/06/23 05:07:58;;;;;;;;;;;;;;;;;;4991289;28;8997;-80
2023/06/23 05:10:28;;;;;;;;;;;;;;;;;;4990799;28;8673;-81
2023/06/23 05:12:55;;;;;;;;;;;;;;;;;;4990580;28;8549;-81
2023/06/23 05:15:23;;;;;;;;;;;;;;;;;;4990579;28;8610;-80
2023/06/23 05:17:51;;;;;;;;;;;;;;;;;;4991664;28;7126;-81
2023/06/23 05:20:19;;;;;;;;;;;;;;;;;;4988061;28;9398;-81
2023/06/23 05:22:47;;;;;;;;;;;;;;;;;;4989829;28;8767;-82
2023/06/23 05:25:15;;;;;;;;;;;;;;;;;;4978835;28;8631;-81
2023/06/23 05:27:44;;;;;;;;;;;;;;;;;;4978707;28;9075;-81
2023/06/23 05:30:14;;;;;;;;;;;;;;;;;;4985073;28;7450;-81
2023/06/23 05:32:41;;;;;;;;;;;;;;;;;;4980287;28;8549;-81
2023/06/23 05:35:09;;;;;;;;;;;;;;;;;;4999176;28;8532;-81
2023/06/23 05:37:37;;;;;;;;;;;;;;;;;;4990519;28;7262;-81
2023/06/23 05:40:06;;;;;;;;;;;;;;;;;;4979535;28;8744;-81
2023/06/23 05:42:32;;;;;;;;;;;;;;;;;;4979746;28;8854;-82
2023/06/23 05:45:00;;;;;;;;;;;;;;;;;;4979621;28;8453;-81
2023/06/23 05:47:29;;;;;;;;;;;;;;;;;;4979801;28;7136;-81
2023/06/23 05:50:00;;;;;;;;;;;;;;;;;;4981663;28;8557;-81
2023/06/23 05:52:30;;;;;;;;;;;;;;;;;;4986441;28;8592;-82
2023/06/23 05:54:58;;;;;;;;;;;;;;;;;;4998874;28;7216;-82
2023/06/23 05:57:31;;;;;;;;;;;;;;;;;;4998969;28;8573;-81
2023/06/23 06:00:06;;;;;;;;;;;;;;;;;;5015459;28;8525;-82
2023/06/23 06:02:34;;;;;;;;;;;;;;;;;;5015050;28;7319;-81
2023/06/23 06:05:02;;;;;;;;;;;;;;;;;;4998645;28;7148;-82
2023/06/23 06:07:30;;;;;;;;;;;;;;;;;;4998540;28;8673;-83
2023/06/23 06:09:58;;;;;;;;;;;;;;;;;;4998882;28;8570;-83
2023/06/23 06:12:25;;;;;;;;;;;;;;;;;;4998681;28;8528;-82
2023/06/23 06:14:52;;;;;;;;;;;;;;;;;;4992166;28;8491;-81
2023/06/23 06:17:18;;;;;;;;;;;;;;;;;;4982441;28;7115;-80
2023/06/23 06:19:45;;;;;;;;;;;;;;;;;;4987526;28;8798;-82
2023/06/23 06:22:13;;;;;;;;;;;;;;;;;;4996550;28;8560;-81
2023/06/23 06:24:41;;;;;;;;;;;;;;;;;;4992338;28;9419;-81
2023/06/23 06:27:08;;;;;;;;;;;;;;;;;;4985210;28;8692;-81
2023/06/23 06:29:36;;;;;;;;;;;;;;;;;;4979236;28;7288;-83
2023/06/23 06:32:07;;;;;;;;;;;;;;;;;;4978235;28;8648;-83
2023/06/23 06:34:34;;;;;;;;;;;;;;;;;;4980744;28;8632;-84
2023/06/23 06:37:01;;;;;;;;;;;;;;;;;;4976947;28;8796;-82
2023/06/23 06:39:30;;;;;;;;;;;;;;;;;;4976977;28;8645;-83
2023/06/23 06:41:57;;;;;;;;;;;;;;;;;;4976993;28;8565;-82
2023/06/23 06:44:23;;;;;;;;;;;;;;;;;;4976300;28;8870;-83
2023/06/23 06:46:50;;;;;;;;;;;;;;;;;;4983925;28;8810;-84
2023/06/23 06:49:18;;;;;;;;;;;;;;;;;;4977320;28;7265;-83
2023/06/23 06:51:45;;;;;;;;;;;;;;;;;;4991946;28;8828;-84
2023/06/23 06:54:11;;;;;;;;;;;;;;;;;;4976439;28;7275;-84
2023/06/23 06:56:39;;;;;;;;;;;;;;;;;;4977576;28;7496;-83
2023/06/23 06:59:05;;;;;;;;;;;;;;;;;;4974160;28;8711;-88
2023/06/23 07:01:31;;;;;;;;;;;;;;;;;;4983680;28;7119;-83
2023/06/23 07:03:57;;;;;;;;;;;;;;;;;;4993609;28;7266;-85
2023/06/23 07:06:25;;;;;;;;;;;;;;;;;;4993523;28;8838;-82
2023/06/23 07:08:50;;;;;;;;;;;;;;;;;;4990784;28;8533;-89
2023/06/23 07:11:16;;;;;;;;;;;;;;;;;;4988403;28;9512;-89
2023/06/23 07:13:41;;;;;;;;;;;;;;;;;;4990509;28;9967;-85
2023/06/23 07:16:07;;;;;;;;;;;;;;;;;;4990385;28;8866;-84
2023/06/23 07:18:33;;;;;;;;;;;;;;;;;;4990130;28;8500;-86
2023/06/23 07:21:00;;;;;;;;;;;;;;;;;;4990391;28;8503;-88
2023/06/23 07:23:26;;;;;;;;;;;;;;;;;;4989966;28;9617;-85
2023/06/23 07:25:52;;;;;;;;;;;;;;;;;;4990196;28;7262;-87
2023/06/23 07:28:17;;;;;;;;;;;;;;;;;;4990275;28;7138;-89
2023/06/23 07:30:43;;;;;;;;;;;;;;;;;;4990771;28;8859;-87
2023/06/23 07:33:08;;;;;;;;;;;;;;;;;;4989900;28;8525;-87
2023/06/23 07:35:34;;;;;;;;;;;;;;;;;;4989872;28;8569;-84
2023/06/23 07:38:00;;;;;;;;;;;;;;;;;;4989696;28;8707;-84
2023/06/23 07:40:25;;;;;;;;;;;;;;;;;;4989559;28;8935;-84
2023/06/23 07:42:52;;;;;;;;;;;;;;;;;;4989655;28;8528;-84
2023/06/23 07:45:17;;;;;;;;;;;;;;;;;;4976505;28;9247;-84
2023/06/23 07:47:43;;;;;;;;;;;;;;;;;;4973819;28;8777;-84
2023/06/23 07:50:09;;;;;;;;;;;;;;;;;;4973511;28;8673;-84
2023/06/23 07:52:34;;;;;;;;;;;;;;;;;;4973198;28;8582;-89
2023/06/23 07:55:00;;;;;;;;;;;;;;;;;;4974991;28;9013;-88
2023/06/23 07:57:25;;;;;;;;;;;;;;;;;;4992926;28;8535;-88
2023/06/23 07:59:51;;;;;;;;;;;;;;;;;;4990522;28;8575;-84
2023/06/23 08:02:17;;;;;;;;;;;;;;;;;;4998452;28;8543;-84
2023/06/23 08:04:42;;;;;;;;;;;;;;;;;;5008818;28;8670;-85
2023/06/23 08:07:08;;;;;;;;;;;;;;;;;;5009102;28;8567;-86
2023/06/23 08:09:34;;;;;;;;;;;;;;;;;;5008934;28;8502;-86
2023/06/23 08:11:59;;;;;;;;;;;;;;;;;;5008821;28;8487;-85
2023/06/23 08:14:25;;;;;;;;;;;;;;;;;;5009154;28;9790;-86
2023/06/23 08:16:50;;;;;;;;;;;;;;;;;;5008897;28;7278;-83
2023/06/23 08:19:21;;;;;;;;;;;;;;;;;;5008903;28;8535;-84
2023/06/23 08:21:49;;;;;;;;;;;;;;;;;;5009158;28;8963;-85
2023/06/23 08:24:15;;;;;;;;;;;;;;;;;;5008931;28;8549;-85
2023/06/23 08:26:41;;;;;;;;;;;;;;;;;;5008956;28;9491;-85
2023/06/23 08:29:06;;;;;;;;;;;;;;;;;;5008815;28;8667;-85
2023/06/23 08:31:32;;;;;;;;;;;;;;;;;;5008806;28;8556;-85
2023/06/23 08:33:57;;;;;;;;;;;;;;;;;;5008867;28;8819;-85
2023/06/23 08:36:23;;;;;;;;;;;;;;;;;;5008634;28;8656;-86
2023/06/23 08:38:50;;;;;;;;;;;;;;;;;;4992008;28;8498;-86
2023/06/23 08:41:20;;;;;;;;;;;;;;;;;;5008603;28;8907;-86
2023/06/23 08:43:47;;;;;;;;;;;;;;;;;;5004655;28;8551;-86
2023/06/23 08:46:14;;;;;;;;;;;;;;;;;;4997020;28;8532;-86
2023/06/23 08:48:45;;;;;;;;;;;;;;;;;;4985799;28;8943;-85
2023/06/23 08:51:11;;;;;;;;;;;;;;;;;;4992393;28;9023;-87
2023/06/23 08:53:36;;;;;;;;;;;;;;;;;;4987877;28;8675;-87
2023/06/23 08:56:02;;;;;;;;;;;;;;;;;;4992521;28;7139;-88
2023/06/23 08:58:28;;;;;;;;;;;;;;;;;;5008181;28;8604;-89
2023/06/23 09:00:53;;;;;;;;;;;;;;;;;;4986545;28;8596;-85
2023/06/23 09:03:23;;;;;;;;;;;;;;;;;;4997127;28;8576;-84
2023/06/23 09:05:49;;;;;;;;;;;;;;;;;;5011410;28;8545;-88
2023/06/23 09:08:15;;;;;;;;;;;;;;;;;;4992745;28;7155;-88
2023/06/23 09:10:40;;;;;;;;;;;;;;;;;;5010218;28;8563;-90
2023/06/23 09:13:23;;;;;;;;;;;;;;;;;;5011949;28;8849;-88
2023/06/23 09:15:50;;;;;;;;;;;;;;;;;;5011837;28;8846;-88
2023/06/23 09:18:16;;;;;;;;;;;;;;;;;;5011830;28;8891;-89
2023/06/23 09:20:50;;;;;;;;;;;;;;;;;;5011932;28;8557;-88
2023/06/23 09:23:16;;;;;;;;;;;;;;;;;;5011839;28;8491;-89
2023/06/23 09:25:44;;;;;;;;;;;;;;;;;;5011712;28;8549;-90
2023/06/23 09:28:23;;;;;;;;;;;;;;;;;;5011906;28;8555;-89
2023/06/23 09:30:49;;;;;;;;;;;;;;;;;;5011579;28;8571;-87
2023/06/23 09:33:16;;;;;;;;;;;;;;;;;;5011461;28;8586;-86
2023/06/23 09:35:47;;;;;;;;;;;;;;;;;;5011617;28;8752;-86
2023/06/23 09:38:13;;;;;;;;;;;;;;;;;;5011698;28;7337;-86
2023/06/23 09:40:39;;;;;;;;;;;;;;;;;;5011539;28;8400;-89
2023/06/23 09:43:04;;;;;;;;;;;;;;;;;;5011562;28;8594;-87
2023/06/23 09:45:33;;;;;;;;;;;;;;;;;;5011271;28;9860;-84
2023/06/23 09:47:59;;;;;;;;;;;;;;;;;;5011348;28;7320;-86
2023/06/23 09:50:27;;;;;;;;;;;;;;;;;;5011411;28;8508;-85
2023/06/23 09:53:05;;;;;;;;;;;;;;;;;;5000806;28;8916;-85
2023/06/23 09:55:31;;;;;;;;;;;;;;;;;;4979659;28;8578;-84
2023/06/23 09:57:58;;;;;;;;;;;;;;;;;;4994764;28;8552;-84
2023/06/23 10:00:29;;;;;;;;;;;;;;;;;;4991042;28;8910;-84
2023/06/23 10:02:57;;;;;;;;;;;;;;;;;;4990969;28;8579;-86
2023/06/23 10:05:22;;;;;;;;;;;;;;;;;;4991258;28;8764;-84
2023/06/23 10:07:48;;;;;;;;;;;;;;;;;;4994623;28;8504;-86
2023/06/23 10:10:14;;;;;;;;;;;;;;;;;;4994768;28;8571;-85
2023/06/23 10:12:41;;;;;;;;;;;;;;;;;;4994423;28;8484;-85
2023/06/23 10:15:07;;;;;;;;;;;;;;;;;;4994529;28;8950;-85
2023/06/23 10:17:34;;;;;;;;;;;;;;;;;;4994621;28;8486;-84
2023/06/23 10:20:00;;;;;;;;;;;;;;;;;;4990702;28;9320;-82
2023/06/23 10:22:27;;;;;;;;;;;;;;;;;;4989301;28;7264;-83
2023/06/23 10:24:53;;;;;;;;;;;;;;;;;;4991010;28;8688;-83
2023/06/23 10:27:24;;;;;;;;;;;;;;;;;;4990678;28;7148;-84
2023/06/23 10:29:52;;;;;;;;;;;;;;;;;;4990940;28;8525;-85
2023/06/23 10:32:22;;;;;;;;;;;;;;;;;;4990638;28;9014;-85
2023/06/23 10:34:50;;;;;;;;;;;;;;;;;;4990672;28;8532;-83
2023/06/23 10:37:20;;;;;;;;;;;;;;;;;;4990686;28;8537;-83
2023/06/23 10:39:50;;;;;;;;;;;;;;;;;;4990732;28;8811;-87
2023/06/23 10:42:16;;;;;;;;;;;;;;;;;;4990907;28;8652;-83
2023/06/23 10:44:42;;;;;;;;;;;;;;;;;;4990606;28;8552;-86
2023/06/23 10:47:09;;;;;;;;;;;;;;;;;;4990805;28;8620;-86
2023/06/23 10:49:35;;;;;;;;;;;;;;;;;;4990339;28;8572;-86
2023/06/23 10:52:03;;;;;;;;;;;;;;;;;;4990337;28;8760;-86
2023/06/23 10:54:29;;;;;;;;;;;;;;;;;;4996949;28;8643;-85
2023/06/23 10:56:55;;;;;;;;;;;;;;;;;;4974225;28;8812;-85
2023/06/23 10:59:25;;;;;;;;;;;;;;;;;;4974068;28;8531;-85
2023/06/23 11:02:00;;;;;;;;;;;;;;;;;;4973895;28;8541;-84
2023/06/23 11:04:26;;;;;;;;;;;;;;;;;;4974076;28;8182;-87
2023/06/23 11:07:09;;;;;;;;;;;;;;;;;;4973697;28;8532;-85
2023/06/23 11:09:45;;;;;;;;;;;;;;;;;;4974039;28;7365;-86
2023/06/23 11:12:29;;;;;;;;;;;;;;;;;;4989996;28;8909;-84
2023/06/23 11:15:24;;;;;;;;;;;;;;;;;;4973603;28;7224;-86
2023/06/23 11:17:50;;;;;;;;;;;;;;;;;;4992355;28;8862;-86
2023/06/23 11:20:24;;;;;;;;;;;;;;;;;;4993329;28;8475;-87
2023/06/23 11:23:09;;;;;;;;;;;;;;;;;;4993219;28;7286;-86
2023/06/23 11:25:47;;;;;;;;;;;;;;;;;;4990184;28;8952;-85
2023/06/23 11:28:34;;;;;;;;;;;;;;;;;;4990127;28;9333;-85
2023/06/23 11:30:59;;;;;;;;;;;;;;;;;;4992728;28;8542;-88
2023/06/23 11:33:29;;;;;;;;;;;;;;;;;;5009471;28;8632;-86
2023/06/23 11:35:55;;;;;;;;;;;;;;;;;;4993275;28;8551;-86
2023/06/23 11:38:21;;;;;;;;;;;;;;;;;;4992973;28;8908;-86
2023/06/23 11:40:47;;;;;;;;;;;;;;;;;;4992957;28;8491;-84
2023/06/23 11:43:15;;;;;;;;;;;;;;;;;;4980777;28;8828;-85
2023/06/23 11:45:46;;;;;;;;;;;;;;;;;;4993265;28;9003;-85
2023/06/23 11:48:12;;;;;;;;;;;;;;;;;;4992848;28;8437;-83
2023/06/23 11:50:41;;;;;;;;;;;;;;;;;;4993018;28;8525;-85
2023/06/23 11:53:07;;;;;;;;;;;;;;;;;;4989402;28;8589;-84
2023/06/23 11:55:33;;;;;;;;;;;;;;;;;;4989092;28;8859;-85
2023/06/23 11:57:58;;;;;;;;;;;;;;;;;;5003167;28;8830;-85
2023/06/23 12:00:24;;;;;;;;;;;;;;;;;;4973104;28;8533;-85
2023/06/23 12:02:50;;;;;;;;;;;;;;;;;;4973211;28;8485;-84
2023/06/23 12:05:16;;;;;;;;;;;;;;;;;;4973088;28;8922;-85
2023/06/23 12:07:41;;;;;;;;;;;;;;;;;;4973238;28;8872;-86
2023/06/23 12:10:08;;;;;;;;;;;;;;;;;;4973154;28;8610;-84
2023/06/23 12:12:34;;;;;;;;;;;;;;;;;;4973133;28;8586;-85
2023/06/23 12:15:00;;;;;;;;;;;;;;;;;;4973185;28;8539;-86
2023/06/23 12:17:25;;;;;;;;;;;;;;;;;;4973033;28;8723;-86
2023/06/23 12:19:51;;;;;;;;;;;;;;;;;;4973097;28;8515;-85
2023/06/23 12:22:17;;;;;;;;;;;;;;;;;;4972847;28;8588;-86
2023/06/23 12:24:44;;;;;;;;;;;;;;;;;;4973025;28;8567;-85
2023/06/23 12:27:10;;;;;;;;;;;;;;;;;;4974929;28;8516;-85
2023/06/23 12:29:37;;;;;;;;;;;;;;;;;;4976683;28;8902;-86
2023/06/23 12:32:03;;;;;;;;;;;;;;;;;;4976821;28;8559;-86
2023/06/23 12:34:33;;;;;;;;;;;;;;;;;;4976795;28;8624;-86
2023/06/23 12:37:10;;;;;;;;;;;;;;;;;;4977121;28;7567;-85
2023/06/23 12:39:36;;;;;;;;;;;;;;;;;;4976799;28;8710;-86
2023/06/23 12:42:02;;;;;;;;;;;;;;;;;;4976557;28;8879;-86
2023/06/23 12:44:30;;;;;;;;;;;;;;;;;;4978062;28;8881;-86
2023/06/23 12:46:57;;;;;;;;;;;;;;;;;;4976502;28;8604;-86
2023/06/23 12:49:32;;;;;;;;;;;;;;;;;;4976133;28;8558;-85
2023/06/23 12:52:00;;;;;;;;;;;;;;;;;;4991611;28;8468;-86
2023/06/23 12:54:26;;;;;;;;;;;;;;;;;;4991638;28;8937;-86
2023/06/23 12:56:55;;;;;;;;;;;;;;;;;;4996475;28;8536;-86
2023/06/23 12:59:21;;;;;;;;;;;;;;;;;;4991287;28;7507;-86
2023/06/23 13:01:48;;;;;;;;;;;;;;;;;;4991068;28;7136;-87
2023/06/23 13:04:13;;;;;;;;;;;;;;;;;;4981984;28;8957;-87
2023/06/23 13:06:39;;;;;;;;;;;;;;;;;;4995366;28;8862;-86
2023/06/23 13:09:05;;;;;;;;;;;;;;;;;;4991818;28;8547;-86
2023/06/23 13:11:31;;;;;;;;;;;;;;;;;;4991458;28;8482;-85
2023/06/23 13:13:57;;;;;;;;;;;;;;;;;;4982088;28;9109;-85
2023/06/23 13:16:23;;;;;;;;;;;;;;;;;;4991233;28;7272;-85
2023/06/23 13:18:49;;;;;;;;;;;;;;;;;;4989931;28;9856;-85
2023/06/23 13:21:14;;;;;;;;;;;;;;;;;;4977938;28;8498;-84
2023/06/23 13:23:40;;;;;;;;;;;;;;;;;;4977598;28;8663;-87
2023/06/23 13:26:05;;;;;;;;;;;;;;;;;;4978936;28;8591;-87
2023/06/23 13:28:33;;;;;;;;;;;;;;;;;;4982663;28;8906;-88
2023/06/23 13:30:58;;;;;;;;;;;;;;;;;;4978382;28;8778;-85
2023/06/23 13:33:24;;;;;;;;;;;;;;;;;;4990038;28;8891;-83
2023/06/23 13:35:50;;;;;;;;;;;;;;;;;;4980507;28;8753;-86
2023/06/23 13:38:16;;;;;;;;;;;;;;;;;;4989983;28;8444;-87
2023/06/23 13:40:42;;;;;;;;;;;;;;;;;;4993633;28;8552;-87
2023/06/23 13:43:07;;;;;;;;;;;;;;;;;;4985827;28;8822;-86
2023/06/23 13:45:33;;;;;;;;;;;;;;;;;;4993005;28;8524;-87
2023/06/23 13:47:58;;;;;;;;;;;;;;;;;;4993946;28;8483;-87
2023/06/23 13:50:24;;;;;;;;;;;;;;;;;;4993908;28;8914;-83
2023/06/23 13:52:50;;;;;;;;;;;;;;;;;;4994819;28;8532;-86
2023/06/23 13:55:15;;;;;;;;;;;;;;;;;;4994842;28;8842;-86
2023/06/23 13:57:41;;;;;;;;;;;;;;;;;;4987457;28;9330;-86
2023/06/23 14:00:08;;;;;;;;;;;;;;;;;;4976523;28;8574;-84
2023/06/23 14:02:34;;;;;;;;;;;;;;;;;;4974150;28;8911;-85
2023/06/23 14:04:59;;;;;;;;;;;;;;;;;;4974795;28;8504;-85
2023/06/23 14:07:25;;;;;;;;;;;;;;;;;;4975140;28;8830;-84
2023/06/23 14:09:51;;;;;;;;;;;;;;;;;;4991552;28;7262;-85
2023/06/23 14:12:16;;;;;;;;;;;;;;;;;;4993301;28;9524;-86
2023/06/23 14:14:42;;;;;;;;;;;;;;;;;;4989829;28;8543;-86
2023/06/23 14:17:07;;;;;;;;;;;;;;;;;;4976939;28;8535;-85
2023/06/23 14:19:33;;;;;;;;;;;;;;;;;;4997247;28;8616;-85
2023/06/23 14:21:58;;;;;;;;;;;;;;;;;;4988894;28;8539;-86
2023/06/23 14:24:24;;;;;;;;;;;;;;;;;;5005284;28;9056;-85
2023/06/23 14:26:50;;;;;;;;;;;;;;;;;;4992686;28;8490;-85
2023/06/23 14:29:15;;;;;;;;;;;;;;;;;;4988050;28;8865;-86
2023/06/23 14:31:42;;;;;;;;;;;;;;;;;;5000159;28;8520;-85
2023/06/23 14:34:08;;;;;;;;;;;;;;;;;;5010425;28;9007;-86
2023/06/23 14:36:34;;;;;;;;;;;;;;;;;;5006479;28;8844;-86
2023/06/23 14:39:00;;;;;;;;;;;;;;;;;;4987526;28;8583;-85
2023/06/23 14:41:26;;;;;;;;;;;;;;;;;;4982277;28;8629;-86
2023/06/23 14:43:52;;;;;;;;;;;;;;;;;;4991612;28;7302;-85
2023/06/23 14:46:18;;;;;;;;;;;;;;;;;;4991705;28;8510;-86
2023/06/23 14:48:43;;;;;;;;;;;;;;;;;;4990594;28;8914;-85
2023/06/23 14:51:09;;;;;;;;;;;;;;;;;;4984252;28;8502;-86
2023/06/23 14:53:38;;;;;;;;;;;;;;;;;;4990299;28;8523;-86
2023/06/23 14:56:04;;;;;;;;;;;;;;;;;;4990306;28;9367;-87
2023/06/23 14:58:29;;;;;;;;;;;;;;;;;;4990267;28;8533;-85
2023/06/23 15:00:57;;;;;;;;;;;;;;;;;;5001330;28;8511;-85
2023/06/23 15:03:23;;;;;;;;;;;;;;;;;;4974072;28;9648;-86
2023/06/23 15:05:49;;;;;;;;;;;;;;;;;;4973985;28;8774;-85
2023/06/23 15:08:15;;;;;;;;;;;;;;;;;;4973881;28;8514;-84
2023/06/23 15:10:41;;;;;;;;;;;;;;;;;;4973740;28;8781;-84
2023/06/23 15:13:07;;;;;;;;;;;;;;;;;;4973720;28;9395;-84
2023/06/23 15:15:32;;;;;;;;;;;;;;;;;;4973725;28;8505;-84
2023/06/23 15:17:58;;;;;;;;;;;;;;;;;;4978050;28;8520;-84
2023/06/23 15:20:24;;;;;;;;;;;;;;;;;;5009259;28;8520;-85
2023/06/23 15:22:49;;;;;;;;;;;;;;;;;;4998596;28;8580;-85
2023/06/23 15:25:15;;;;;;;;;;;;;;;;;;4974679;28;8781;-85
2023/06/23 15:27:41;;;;;;;;;;;;;;;;;;4973294;28;8522;-84
2023/06/23 15:30:09;;;;;;;;;;;;;;;;;;4973540;28;8556;-85
2023/06/23 15:32:34;;;;;;;;;;;;;;;;;;4973514;28;7444;-85
2023/06/23 15:35:00;;;;;;;;;;;;;;;;;;4973221;28;7229;-85
2023/06/23 15:37:25;;;;;;;;;;;;;;;;;;4991651;28;8839;-85
2023/06/23 15:39:52;;;;;;;;;;;;;;;;;;4992764;28;8485;-85
2023/06/23 15:42:18;;;;;;;;;;;;;;;;;;4992595;28;7364;-85
2023/06/23 15:44:44;;;;;;;;;;;;;;;;;;4992593;28;8545;-85
2023/06/23 15:47:10;;;;;;;;;;;;;;;;;;4992685;28;8755;-85
2023/06/23 15:49:35;;;;;;;;;;;;;;;;;;4992512;28;9450;-85
2023/06/23 15:52:01;;;;;;;;;;;;;;;;;;4992474;28;8530;-85
2023/06/23 15:54:27;;;;;;;;;;;;;;;;;;4992219;28;8535;-83
2023/06/23 15:56:53;;;;;;;;;;;;;;;;;;4992559;28;8462;-84
2023/06/23 15:59:19;;;;;;;;;;;;;;;;;;4990916;28;8529;-90
2023/06/23 16:01:44;;;;;;;;;;;;;;;;;;4987058;28;9098;-84
2023/06/23 16:04:10;;;;;;;;;;;;;;;;;;4991527;28;8562;-84
2023/06/23 16:06:37;;;;;;;;;;;;;;;;;;4989699;28;8562;-84
2023/06/23 16:09:03;;;;;;;;;;;;;;;;;;4985695;28;9272;-82
2023/06/23 16:11:29;;;;;;;;;;;;;;;;;;4978972;28;8663;-84
2023/06/23 16:13:54;;;;;;;;;;;;;;;;;;4988909;28;8887;-85
2023/06/23 16:16:20;;;;;;;;;;;;;;;;;;5000930;28;8525;-87
2023/06/23 16:18:46;;;;;;;;;;;;;;;;;;4992125;28;8550;-85
2023/06/23 16:21:11;;;;;;;;;;;;;;;;;;4992412;28;9637;-83
2023/06/23 16:23:37;;;;;;;;;;;;;;;;;;4992186;28;8521;-84
2023/06/23 16:26:02;;;;;;;;;;;;;;;;;;4977106;28;9063;-84
2023/06/23 16:28:28;;;;;;;;;;;;;;;;;;4977158;28;8566;-84
2023/06/23 16:30:53;;;;;;;;;;;;;;;;;;4992026;28;8593;-85
2023/06/23 16:33:19;;;;;;;;;;;;;;;;;;4992031;28;8409;-84
2023/06/23 16:35:45;;;;;;;;;;;;;;;;;;4992267;28;8835;-84
2023/06/23 16:38:11;;;;;;;;;;;;;;;;;;4991973;28;8502;-83
2023/06/23 16:40:36;;;;;;;;;;;;;;;;;;4992253;28;8546;-83
2023/06/23 16:43:04;;;;;;;;;;;;;;;;;;4991985;28;9311;-82
2023/06/23 16:45:29;;;;;;;;;;;;;;;;;;4991854;28;8935;-84
2023/06/23 16:47:55;;;;;;;;;;;;;;;;;;4988520;28;8583;-81
2023/06/23 16:50:21;;;;;;;;;;;;;;;;;;4989204;28;7267;-85
2023/06/23 16:52:48;;;;;;;;;;;;;;;;;;4988244;28;8575;-81
2023/06/23 16:55:14;;;;;;;;;;;;;;;;;;4988744;28;8859;-82
2023/06/23 16:57:39;;;;;;;;;;;;;;;;;;4988534;28;7179;-83
2023/06/23 17:00:07;;;;;;;;;;;;;;;;;;4989190;28;8918;-84
2023/06/23 17:02:33;;;;;;;;;;;;;;;;;;4988804;28;8960;-83
2023/06/23 17:04:59;;;;;;;;;;;;;;;;;;4988621;28;8811;-84